createdAt,value
2023-02-03T00:05:37.247Z,99016.63
2023-02-03T00:06:41.101Z,99014.09
2023-02-03T00:07:44.334Z,99014.06
2023-02-03T00:08:47.222Z,99009.78
2023-02-03T00:10:09.262Z,99014.94
2023-02-03T00:11:11.110Z,99015.78
2023-02-03T00:12:14.573Z,99027.75
2023-02-03T00:13:16.449Z,99024.28
2023-02-03T00:14:19.311Z,99028.59
2023-02-03T00:15:23.165Z,99025.94
2023-02-03T00:16:26.366Z,99032.75
2023-02-03T00:17:29.918Z,99023.38
2023-02-03T00:18:32.705Z,99031.09
2023-02-03T00:19:35.439Z,99029.41
2023-02-03T00:20:37.327Z,99042.19
2023-02-03T00:21:40.143Z,99028.53
2023-02-03T00:22:41.952Z,99032.75
2023-02-03T00:23:44.835Z,99027.59
2023-02-03T00:24:46.622Z,99026.78
2023-02-03T00:25:49.392Z,99032.81
2023-02-03T00:27:11.880Z,99038.88
2023-02-03T00:28:14.194Z,99029.41
2023-02-03T00:29:18.556Z,99040.53
2023-02-03T00:30:20.864Z,99029.41
2023-02-03T00:31:26.051Z,99024.28
2023-02-03T00:32:28.203Z,99029.34
2023-02-03T00:33:33.741Z,99025.88
2023-02-03T00:34:37.294Z,99028.53
2023-02-03T00:35:39.499Z,99025.88
2023-02-03T00:36:43.119Z,99030.13
2023-02-03T00:37:45.045Z,99030.97
2023-02-03T00:38:49.013Z,99030.97
2023-02-03T00:39:50.854Z,99026.66
2023-02-03T00:40:54.373Z,99024.13
2023-02-03T00:41:56.210Z,99031.91
2023-02-03T00:43:17.974Z,99033.66
2023-02-03T00:44:19.845Z,99041.38
2023-02-03T00:45:22.966Z,99040.53
2023-02-03T00:46:25.155Z,99039.69
2023-02-03T00:47:27.980Z,99044.84
2023-02-03T00:48:31.298Z,99046.50
2023-02-03T00:49:34.905Z,99045.69
2023-02-03T00:50:39.179Z,99043.94
2023-02-03T00:51:41.889Z,99049.09
2023-02-03T00:52:43.681Z,99048.25
2023-02-03T00:53:46.736Z,99045.69
2023-02-03T00:54:48.547Z,99050.81
2023-02-03T00:55:53.031Z,99049.97
2023-02-03T00:56:54.919Z,99049.16
2023-02-03T00:57:57.671Z,99048.31
2023-02-03T00:58:59.946Z,99046.50
2023-02-03T01:00:03.375Z,99052.47
2023-02-03T01:01:05.760Z,99044.00
2023-02-03T01:02:08.793Z,99044.00
2023-02-03T01:03:10.777Z,99048.31
2023-02-03T01:04:15.201Z,99043.19
2023-02-03T01:05:16.982Z,99050.06
2023-02-03T01:06:21.998Z,99046.63
2023-02-03T01:07:23.781Z,99046.69
2023-02-03T01:08:26.984Z,99040.72
2023-02-03T01:09:29.391Z,99045.03
2023-02-03T01:10:32.256Z,99051.97
2023-02-03T01:11:34.330Z,99043.38
2023-02-03T01:12:37.575Z,99051.16
2023-02-03T01:13:39.810Z,99046.03
2023-02-03T01:14:44.439Z,99041.78
2023-02-03T01:15:47.449Z,99048.59
2023-02-03T01:16:50.399Z,99042.63
2023-02-03T01:17:52.668Z,99043.53
2023-02-03T01:18:56.495Z,99039.22
2023-02-03T01:20:00.073Z,99035.81
2023-02-03T01:21:08.131Z,99039.22
2023-02-03T01:22:10.422Z,99033.25
2023-02-03T01:23:13.245Z,99037.56
2023-02-03T01:24:15.128Z,99032.41
2023-02-03T01:25:17.938Z,99029.84
2023-02-03T01:26:21.380Z,99029.84
2023-02-03T01:27:24.410Z,99021.31
2023-02-03T01:28:26.214Z,99033.31
2023-02-03T01:29:29.158Z,99025.59
2023-02-03T01:30:31.045Z,99029.03
2023-02-03T01:31:37.040Z,99027.38
2023-02-03T01:32:39.090Z,99032.44
2023-02-03T01:33:42.494Z,99027.31
2023-02-03T01:34:44.375Z,99029.94
2023-02-03T01:35:48.534Z,99033.34
2023-02-03T01:36:51.593Z,99037.66
2023-02-03T01:37:53.679Z,99027.38
2023-02-03T01:38:56.853Z,99030.03
2023-02-03T01:39:58.677Z,99035.16
2023-02-03T01:41:02.934Z,99040.28
2023-02-03T01:42:05.858Z,99030.03
2023-02-03T01:43:10.259Z,99028.34
2023-02-03T01:44:43.779Z,99024.09
2023-02-03T01:45:47.094Z,99031.03
2023-02-03T01:46:50.247Z,99024.22
2023-02-03T01:47:56.074Z,99025.97
2023-02-03T01:49:03.815Z,99023.44
2023-02-03T01:50:11.130Z,99016.63
2023-02-03T01:51:14.464Z,99020.03
2023-02-03T01:52:17.830Z,99028.56
2023-02-03T01:53:20.678Z,99018.34
2023-02-03T01:54:24.589Z,99015.78
2023-02-03T01:55:34.804Z,99021.81
2023-02-03T01:56:39.556Z,99014.13
2023-02-03T01:57:46.841Z,99019.38
2023-02-03T01:58:49.985Z,99015.97
2023-02-03T01:59:53.877Z,99016.88
2023-02-03T02:00:57.515Z,99013.53
2023-02-03T02:02:01.676Z,99011.81
2023-02-03T02:03:06.358Z,99017.03
2023-02-03T02:04:08.538Z,99005.16
2023-02-03T02:05:17.684Z,99014.63
2023-02-03T02:06:21.078Z,99012.97
2023-02-03T02:07:24.661Z,99009.63
2023-02-03T02:08:28.038Z,99007.09
2023-02-03T02:09:32.151Z,99013.13
2023-02-03T02:10:35.223Z,99018.28
2023-02-03T02:11:37.597Z,99019.19
2023-02-03T02:12:40.622Z,99015.78
2023-02-03T02:13:43.229Z,99008.91
2023-02-03T02:14:47.327Z,99011.47
2023-02-03T02:15:55.286Z,99006.34
2023-02-03T02:17:04.308Z,99010.63
2023-02-03T02:18:17.260Z,99009.81
2023-02-03T02:19:41.519Z,99009.00
2023-02-03T02:21:12.680Z,99010.81
2023-02-03T02:22:20.470Z,99002.34
2023-02-03T02:23:39.450Z,99006.66
2023-02-03T02:25:04.277Z,98999.81
2023-02-03T02:26:38.722Z,99000.72
2023-02-03T02:28:03.341Z,99003.34
2023-02-03T02:29:27.566Z,98999.94
2023-02-03T02:30:55.657Z,99005.06
2023-02-03T02:32:05.906Z,99003.34
2023-02-03T02:33:15.817Z,99003.28
2023-02-03T02:34:24.570Z,99006.75
2023-02-03T02:35:37.371Z,99008.34
2023-02-03T02:36:43.262Z,99000.63
2023-02-03T02:37:49.770Z,99003.16
2023-02-03T02:38:58.703Z,99004.91
2023-02-03T02:40:08.761Z,98999.78
2023-02-03T02:41:16.746Z,99004.91
2023-02-03T02:42:25.795Z,98996.38
2023-02-03T02:43:33.972Z,99001.44
2023-02-03T02:44:40.564Z,98990.34
2023-02-03T02:45:46.651Z,98993.72
2023-02-03T02:46:51.552Z,98988.59
2023-02-03T02:47:57.966Z,98988.53
2023-02-03T02:49:06.226Z,98997.97
2023-02-03T02:50:13.468Z,98985.13
2023-02-03T02:51:16.853Z,98975.75
2023-02-03T02:52:19.775Z,98977.41
2023-02-03T02:53:27.022Z,98976.59
2023-02-03T02:54:30.798Z,98971.53
2023-02-03T02:55:36.074Z,98971.53
2023-02-03T02:56:41.500Z,98979.22
2023-02-03T02:57:45.191Z,98967.25
2023-02-03T02:58:49.059Z,98967.25
2023-02-03T02:59:51.886Z,98967.31
2023-02-03T03:00:54.598Z,98958.84
2023-02-03T03:01:57.513Z,98959.69
2023-02-03T03:03:12.608Z,98960.59
2023-02-03T03:04:17.210Z,98954.72
2023-02-03T03:05:19.439Z,98953.88
2023-02-03T03:06:30.439Z,98960.78
2023-02-03T03:07:36.047Z,98962.59
2023-02-03T03:08:42.884Z,98960.09
2023-02-03T03:09:48.449Z,98961.03
2023-02-03T03:10:51.734Z,98956.88
2023-02-03T03:11:57.647Z,98958.59
2023-02-03T03:13:02.393Z,98962.94
2023-02-03T03:14:05.797Z,98969.88
2023-02-03T03:15:13.276Z,98971.53
2023-02-03T03:16:15.971Z,98975.00
2023-02-03T03:17:23.538Z,98975.00
2023-02-03T03:18:30.552Z,98987.84
2023-02-03T03:19:35.866Z,98988.75
2023-02-03T03:20:40.532Z,98992.22
2023-02-03T03:21:46.591Z,98993.03
2023-02-03T03:22:51.181Z,99003.31
2023-02-03T03:23:56.029Z,99000.75
2023-02-03T03:25:01.183Z,99002.41
2023-02-03T03:26:11.097Z,99005.81
2023-02-03T03:27:15.401Z,99008.38
2023-02-03T03:28:26.550Z,99005.81
2023-02-03T03:29:32.066Z,98998.94
2023-02-03T03:30:36.474Z,99010.06
2023-02-03T03:31:39.181Z,99010.94
2023-02-03T03:32:42.309Z,98998.19
2023-02-03T03:33:45.822Z,98996.47
2023-02-03T03:34:48.813Z,98998.34
2023-02-03T03:35:55.251Z,98993.25
2023-02-03T03:37:02.574Z,98991.56
2023-02-03T03:38:08.268Z,98989.06
2023-02-03T03:39:15.300Z,98986.56
2023-02-03T03:40:20.525Z,98990.88
2023-02-03T03:41:31.499Z,98991.81
2023-02-03T03:42:36.456Z,98984.09
2023-02-03T03:43:42.296Z,98981.53
2023-02-03T03:44:50.008Z,98980.72
2023-02-03T03:45:55.931Z,98985.00
2023-02-03T03:47:03.724Z,98980.78
2023-02-03T03:48:08.747Z,98970.53
2023-02-03T03:49:12.555Z,98974.84
2023-02-03T03:50:18.841Z,98965.47
2023-02-03T03:51:24.672Z,98971.50
2023-02-03T03:52:30.392Z,98965.56
2023-02-03T03:53:34.261Z,98969.88
2023-02-03T03:54:37.733Z,98964.72
2023-02-03T03:55:40.479Z,98952.81
2023-02-03T03:56:48.165Z,98952.88
2023-02-03T03:57:55.291Z,98959.75
2023-02-03T03:58:59.710Z,98949.56
2023-02-03T04:00:02.392Z,98947.91
2023-02-03T04:01:15.374Z,98944.66
2023-02-03T04:02:19.442Z,98948.13
2023-02-03T04:03:24.568Z,98946.56
2023-02-03T04:04:29.384Z,98945.78
2023-02-03T04:05:32.278Z,98943.31
2023-02-03T04:06:35.045Z,98940.84
2023-02-03T04:07:41.862Z,98942.66
2023-02-03T04:08:44.726Z,98941.06
2023-02-03T04:09:46.571Z,98941.97
2023-02-03T04:10:49.418Z,98951.41
2023-02-03T04:12:03.363Z,98955.69
2023-02-03T04:13:06.871Z,98948.09
2023-02-03T04:14:08.730Z,98951.56
2023-02-03T04:15:11.618Z,98951.56
2023-02-03T04:16:13.498Z,98951.56
2023-02-03T04:17:16.515Z,98951.56
2023-02-03T04:18:18.306Z,98948.16
2023-02-03T04:19:21.105Z,98952.47
2023-02-03T04:20:24.886Z,98947.41
2023-02-03T04:21:27.812Z,98950.78
2023-02-03T04:22:29.587Z,98945.66
2023-02-03T04:23:32.501Z,98946.53
2023-02-03T04:24:34.289Z,98953.38
2023-02-03T04:25:37.121Z,98952.56
2023-02-03T04:26:39.664Z,98950.94
2023-02-03T04:27:42.609Z,98940.69
2023-02-03T04:28:44.399Z,98938.16
2023-02-03T04:29:47.539Z,98936.50
2023-02-03T04:30:49.397Z,98934.81
2023-02-03T04:31:52.174Z,98939.13
2023-02-03T04:32:54.222Z,98928.94
2023-02-03T04:33:57.000Z,98927.25
2023-02-03T04:34:58.873Z,98932.38
2023-02-03T04:36:03.119Z,98922.16
2023-02-03T04:37:05.914Z,98923.91
2023-02-03T04:38:07.680Z,98925.72
2023-02-03T04:39:10.530Z,98929.97
2023-02-03T04:40:12.683Z,98926.63
2023-02-03T04:41:15.641Z,98930.06
2023-02-03T04:42:37.019Z,98919.09
2023-02-03T04:43:39.828Z,98925.94
2023-02-03T04:44:41.610Z,98918.31
2023-02-03T04:45:44.391Z,98919.22
2023-02-03T04:46:46.215Z,98919.22
2023-02-03T04:47:54.299Z,98916.66
2023-02-03T04:48:56.754Z,98914.13
2023-02-03T04:50:00.211Z,98909.84
2023-02-03T04:51:04.641Z,98911.53
2023-02-03T04:52:08.003Z,98906.41
2023-02-03T04:53:09.814Z,98899.63
2023-02-03T04:54:12.695Z,98899.59
2023-02-03T04:55:14.701Z,98905.56
2023-02-03T04:56:17.463Z,98897.88
2023-02-03T04:57:19.290Z,98895.31
2023-02-03T04:58:22.454Z,98891.91
2023-02-03T04:59:24.247Z,98891.91
2023-02-03T05:00:27.716Z,98892.78
2023-02-03T05:01:29.677Z,98891.09
2023-02-03T05:02:32.460Z,98886.94
2023-02-03T05:03:34.300Z,98891.16
2023-02-03T05:04:37.187Z,98880.09
2023-02-03T05:05:38.968Z,98884.41
2023-02-03T05:06:43.051Z,98882.72
2023-02-03T05:07:45.306Z,98887.94
2023-02-03T05:08:48.068Z,98893.94
2023-02-03T05:09:49.852Z,98885.38
2023-02-03T05:10:52.817Z,98881.97
2023-02-03T05:11:54.960Z,98875.16
2023-02-03T05:12:57.832Z,98876.03
2023-02-03T05:14:00.004Z,98877.75
2023-02-03T05:15:02.819Z,98879.50
2023-02-03T05:16:05.367Z,98878.66
2023-02-03T05:17:08.508Z,98872.69
2023-02-03T05:18:10.455Z,98867.56
2023-02-03T05:19:13.251Z,98858.22
2023-02-03T05:20:15.623Z,98861.63
2023-02-03T05:21:18.375Z,98859.88
2023-02-03T05:22:21.521Z,98848.81
2023-02-03T05:23:24.788Z,98852.19
2023-02-03T05:24:26.613Z,98848.88
2023-02-03T05:25:29.404Z,98846.31
2023-02-03T05:26:31.575Z,98845.50
2023-02-03T05:27:34.320Z,98836.16
2023-02-03T05:28:36.211Z,98831.09
2023-02-03T05:29:39.119Z,98826.88
2023-02-03T05:30:40.937Z,98825.22
2023-02-03T05:31:43.738Z,98828.69
2023-02-03T05:32:45.929Z,98836.44
2023-02-03T05:33:48.692Z,98833.00
2023-02-03T05:34:50.492Z,98822.75
2023-02-03T05:35:53.481Z,98826.22
2023-02-03T05:36:55.389Z,98824.47
2023-02-03T05:38:00.405Z,98821.97
2023-02-03T05:39:02.327Z,98827.94
2023-02-03T05:40:23.603Z,98820.25
2023-02-03T05:41:43.830Z,98823.66
2023-02-03T05:42:50.008Z,98818.66
2023-02-03T05:43:52.827Z,98812.69
2023-02-03T05:44:55.629Z,98821.16
2023-02-03T05:46:00.153Z,98817.63
2023-02-03T05:47:02.995Z,98821.06
2023-02-03T05:48:05.006Z,98818.44
2023-02-03T05:49:07.916Z,98827.72
2023-02-03T05:50:10.011Z,98822.56
2023-02-03T05:51:12.832Z,98818.22
2023-02-03T05:52:33.922Z,98823.34
2023-02-03T05:53:38.185Z,98827.56
2023-02-03T05:54:40.060Z,98817.31
2023-02-03T05:55:43.001Z,98824.09
2023-02-03T05:56:44.803Z,98821.50
2023-02-03T05:57:47.559Z,98817.22
2023-02-03T05:58:53.124Z,98815.41
2023-02-03T05:59:55.960Z,98803.44
2023-02-03T06:00:57.905Z,98807.66
2023-02-03T06:02:00.709Z,98811.94
2023-02-03T06:03:03.667Z,98810.13
2023-02-03T06:04:06.925Z,98802.44
2023-02-03T06:05:09.252Z,98798.16
2023-02-03T06:06:12.044Z,98806.63
2023-02-03T06:07:13.819Z,98799.81
2023-02-03T06:08:16.614Z,98804.00
2023-02-03T06:09:20.705Z,98798.06
2023-02-03T06:10:27.858Z,98792.94
2023-02-03T06:11:31.028Z,98793.69
2023-02-03T06:12:32.820Z,98789.41
2023-02-03T06:13:35.989Z,98785.91
2023-02-03T06:14:37.801Z,98789.22
2023-02-03T06:15:40.862Z,98782.38
2023-02-03T06:16:42.722Z,98788.34
2023-02-03T06:17:46.393Z,98794.25
2023-02-03T06:18:48.187Z,98792.53
2023-02-03T06:19:50.976Z,98784.84
2023-02-03T06:20:53.912Z,98789.91
2023-02-03T06:21:55.729Z,98788.13
2023-02-03T06:22:58.479Z,98786.41
2023-02-03T06:24:01.320Z,98776.91
2023-02-03T06:25:05.172Z,98781.94
2023-02-03T06:26:07.957Z,98786.16
2023-02-03T06:27:10.280Z,98781.75
2023-02-03T06:28:13.037Z,98781.69
2023-02-03T06:29:14.838Z,98778.25
2023-02-03T06:30:18.246Z,98784.97
2023-02-03T06:31:21.062Z,98780.63
2023-02-03T06:32:23.460Z,98778.00
2023-02-03T06:33:26.646Z,98785.63
2023-02-03T06:34:28.428Z,98782.13
2023-02-03T06:35:31.180Z,98773.66
2023-02-03T06:36:52.700Z,98773.59
2023-02-03T06:37:54.632Z,98772.69
2023-02-03T06:38:59.174Z,98765.84
2023-02-03T06:40:00.929Z,98768.34
2023-02-03T06:41:05.804Z,98768.28
2023-02-03T06:42:07.794Z,98764.75
2023-02-03T06:43:10.588Z,98765.56
2023-02-03T06:44:12.466Z,98773.19
2023-02-03T06:45:15.635Z,98759.53
2023-02-03T06:46:17.432Z,98769.72
2023-02-03T06:47:20.289Z,98767.16
2023-02-03T06:48:22.537Z,98754.22
2023-02-03T06:49:25.366Z,98761.91
2023-02-03T06:50:27.921Z,98760.19
2023-02-03T06:51:30.820Z,98762.59
2023-02-03T06:52:32.589Z,98754.88
2023-02-03T06:53:35.783Z,98748.78
2023-02-03T06:54:37.529Z,98747.00
2023-02-03T06:55:40.254Z,98751.16
2023-02-03T06:56:43.441Z,98755.34
2023-02-03T06:57:46.818Z,98756.09
2023-02-03T06:58:48.697Z,98752.56
2023-02-03T06:59:51.826Z,98744.84
2023-02-03T07:00:55.665Z,98757.53
2023-02-03T07:01:58.526Z,98743.75
2023-02-03T07:03:02.250Z,98747.97
2023-02-03T07:04:05.688Z,98744.47
2023-02-03T07:05:07.858Z,98740.84
2023-02-03T07:06:10.962Z,98739.13
2023-02-03T07:07:12.786Z,98733.94
2023-02-03T07:08:15.504Z,98730.41
2023-02-03T07:09:17.735Z,98731.19
2023-02-03T07:10:20.914Z,98725.22
2023-02-03T07:11:22.839Z,98718.28
2023-02-03T07:12:27.464Z,98715.59
2023-02-03T07:13:30.298Z,98718.94
2023-02-03T07:14:35.592Z,98724.81
2023-02-03T07:15:38.782Z,98718.75
2023-02-03T07:16:40.636Z,98722.91
2023-02-03T07:17:43.388Z,98715.16
2023-02-03T07:18:47.609Z,98715.91
2023-02-03T07:19:51.054Z,98710.69
2023-02-03T07:20:54.009Z,98713.16
2023-02-03T07:21:55.941Z,98710.44
2023-02-03T07:22:59.151Z,98707.03
2023-02-03T07:24:02.358Z,98707.81
2023-02-03T07:25:05.863Z,98703.44
2023-02-03T07:26:07.871Z,98701.72
2023-02-03T07:27:10.639Z,98704.16
2023-02-03T07:28:14.840Z,98708.31
2023-02-03T07:29:16.608Z,98705.81
2023-02-03T07:30:20.859Z,98696.31
2023-02-03T07:31:22.737Z,98689.47
2023-02-03T07:32:25.593Z,98693.63
2023-02-03T07:33:27.861Z,98685.84
2023-02-03T07:34:30.716Z,98692.50
2023-02-03T07:35:33.537Z,98687.25
2023-02-03T07:36:35.359Z,98678.44
2023-02-03T07:37:38.221Z,98674.69
2023-02-03T07:38:41.002Z,98682.94
2023-02-03T07:39:43.803Z,98675.81
2023-02-03T07:40:45.733Z,98674.78
2023-02-03T07:41:48.449Z,98666.22
2023-02-03T07:42:51.437Z,98673.91
2023-02-03T07:43:55.598Z,98669.69
2023-02-03T07:44:58.364Z,98668.03
2023-02-03T07:46:01.754Z,98667.94
2023-02-03T07:47:04.609Z,98660.25
2023-02-03T07:48:06.455Z,98662.81
2023-02-03T07:49:09.525Z,98668.78
2023-02-03T07:50:12.113Z,98661.03
2023-02-03T07:51:14.990Z,98654.97
2023-02-03T07:52:16.799Z,98651.50
2023-02-03T07:53:19.623Z,98652.25
2023-02-03T07:54:21.440Z,98653.03
2023-02-03T07:55:24.184Z,98649.63
2023-02-03T07:56:27.141Z,98645.22
2023-02-03T07:57:29.008Z,98648.50
2023-02-03T07:58:32.230Z,98640.63
2023-02-03T07:59:36.419Z,98638.94
2023-02-03T08:00:39.191Z,98643.16
2023-02-03T08:01:42.307Z,98642.25
2023-02-03T08:02:45.677Z,98638.75
2023-02-03T08:03:47.413Z,98636.91
2023-02-03T08:04:50.206Z,98630.91
2023-02-03T08:05:52.412Z,98625.91
2023-02-03T08:06:55.215Z,98631.97
2023-02-03T08:07:57.084Z,98632.78
2023-02-03T08:08:59.909Z,98625.06
2023-02-03T08:10:01.777Z,98620.84
2023-02-03T08:11:04.817Z,98627.66
2023-02-03T08:12:07.272Z,98618.13
2023-02-03T08:13:10.104Z,98613.84
2023-02-03T08:14:11.877Z,98609.56
2023-02-03T08:15:17.207Z,98609.53
2023-02-03T08:16:20.059Z,98604.22
2023-02-03T08:17:21.922Z,98598.13
2023-02-03T08:18:43.993Z,98601.31
2023-02-03T08:19:46.821Z,98595.16
2023-02-03T08:20:49.026Z,98605.31
2023-02-03T08:21:51.825Z,98600.09
2023-02-03T08:22:53.755Z,98601.63
2023-02-03T08:23:56.554Z,98599.78
2023-02-03T08:25:01.252Z,98597.06
2023-02-03T08:26:04.074Z,98590.94
2023-02-03T08:27:09.825Z,98582.25
2023-02-03T08:28:12.908Z,98588.91
2023-02-03T08:29:15.679Z,98586.78
2023-02-03T08:30:19.227Z,98590.97
2023-02-03T08:31:22.067Z,98590.06
2023-02-03T08:32:24.974Z,98585.59
2023-02-03T08:33:28.795Z,98587.09
2023-02-03T08:34:34.063Z,98577.78
2023-02-03T08:35:36.858Z,98584.78
2023-02-03T08:36:40.070Z,98587.34
2023-02-03T08:37:42.968Z,98584.78
2023-02-03T08:38:46.051Z,98581.09
2023-02-03T08:39:47.820Z,98575.91
2023-02-03T08:40:50.629Z,98570.69
2023-02-03T08:41:53.566Z,98575.03
2023-02-03T08:42:56.301Z,98573.25
2023-02-03T08:43:58.297Z,98572.41
2023-02-03T08:45:02.843Z,98569.75
2023-02-03T08:46:10.590Z,98567.19
2023-02-03T08:47:13.920Z,98569.06
2023-02-03T08:48:16.832Z,98549.31
2023-02-03T08:49:19.247Z,98561.44
2023-02-03T08:50:22.101Z,98567.31
2023-02-03T08:51:25.550Z,98541.44
2023-02-03T08:52:28.696Z,98548.25
2023-02-03T08:53:31.553Z,98544.63
2023-02-03T08:54:34.582Z,98547.78
2023-02-03T08:55:39.960Z,98546.81
2023-02-03T08:56:42.822Z,98546.56
2023-02-03T08:57:44.732Z,98553.22
2023-02-03T08:58:47.463Z,98537.03
2023-02-03T08:59:51.544Z,98539.53
2023-02-03T09:00:55.415Z,98538.69
2023-02-03T09:01:59.925Z,98543.84
2023-02-03T09:03:02.794Z,98540.44
2023-02-03T09:04:08.262Z,98525.09
2023-02-03T09:05:10.301Z,98539.69
2023-02-03T09:06:16.615Z,98539.75
2023-02-03T09:07:19.398Z,98527.91
2023-02-03T09:08:21.139Z,98536.53
2023-02-03T09:09:26.387Z,98522.75
2023-02-03T09:10:29.923Z,98528.72
2023-02-03T09:11:31.993Z,98527.72
2023-02-03T09:12:34.853Z,98521.59
2023-02-03T09:13:36.839Z,98529.13
2023-02-03T09:14:39.772Z,98529.09
2023-02-03T09:15:42.588Z,98522.00
2023-02-03T09:16:45.441Z,98518.31
2023-02-03T09:17:49.572Z,98511.25
2023-02-03T09:18:52.931Z,98509.25
2023-02-03T09:19:55.780Z,98508.94
2023-02-03T09:21:01.348Z,98504.22
2023-02-03T09:22:04.949Z,98508.09
2023-02-03T09:23:07.774Z,98508.69
2023-02-03T09:24:10.572Z,98503.53
2023-02-03T09:25:13.879Z,98498.38
2023-02-03T09:26:16.715Z,98498.56
2023-02-03T09:27:19.464Z,98500.38
2023-02-03T09:28:22.339Z,98497.06
2023-02-03T09:29:24.300Z,98491.91
2023-02-03T09:30:27.542Z,98494.50
2023-02-03T09:31:30.725Z,98491.81
2023-02-03T09:32:34.046Z,98490.03
2023-02-03T09:33:39.547Z,98483.13
2023-02-03T09:34:42.359Z,98486.75
2023-02-03T09:35:52.976Z,98478.44
2023-02-03T09:36:55.930Z,98480.28
2023-02-03T09:37:59.647Z,98481.13
2023-02-03T09:39:02.496Z,98477.72
2023-02-03T09:40:06.160Z,98470.97
2023-02-03T09:41:16.886Z,98460.19
2023-02-03T09:42:38.254Z,98457.16
2023-02-03T09:43:44.399Z,98450.50
2023-02-03T09:44:52.681Z,98452.19
2023-02-03T09:45:55.456Z,98450.34
2023-02-03T09:47:01.998Z,98442.53
2023-02-03T09:48:10.482Z,98433.06
2023-02-03T09:49:18.612Z,98433.06
2023-02-03T09:50:25.217Z,98426.28
2023-02-03T09:51:31.181Z,98430.34
2023-02-03T09:52:36.176Z,98427.84
2023-02-03T09:53:45.292Z,98418.53
2023-02-03T09:54:53.637Z,98421.38
2023-02-03T09:55:56.509Z,98420.63
2023-02-03T09:57:00.311Z,98416.47
2023-02-03T09:58:06.878Z,98407.91
2023-02-03T09:59:10.811Z,98410.31
2023-02-03T10:00:22.544Z,98407.66
2023-02-03T10:01:27.197Z,98404.16
2023-02-03T10:02:43.957Z,98394.72
2023-02-03T10:03:50.004Z,98386.31
2023-02-03T10:04:59.470Z,98387.06
2023-02-03T10:06:13.889Z,98375.84
2023-02-03T10:07:20.776Z,98374.03
2023-02-03T10:08:35.069Z,98365.28
2023-02-03T10:09:49.114Z,98363.56
2023-02-03T10:11:10.444Z,98364.31
2023-02-03T10:12:37.230Z,98356.75
2023-02-03T10:13:46.037Z,98356.16
2023-02-03T10:14:57.419Z,98346.88
2023-02-03T10:16:13.156Z,98340.81
2023-02-03T10:17:29.057Z,98341.63
2023-02-03T10:18:33.560Z,98335.66
2023-02-03T10:19:40.213Z,98332.25
2023-02-03T10:21:05.609Z,98322.06
2023-02-03T10:22:13.245Z,98320.47
2023-02-03T10:23:18.223Z,98319.53
2023-02-03T10:24:33.303Z,98312.66
2023-02-03T10:25:40.776Z,98309.00
2023-02-03T10:26:43.662Z,98302.88
2023-02-03T10:27:46.616Z,98299.38
2023-02-03T10:28:54.250Z,98294.22
2023-02-03T10:29:59.392Z,98289.16
2023-02-03T10:31:05.783Z,98286.75
2023-02-03T10:32:10.487Z,98286.09
2023-02-03T10:33:14.049Z,98282.00
2023-02-03T10:34:19.276Z,98279.63
2023-02-03T10:35:22.886Z,98277.16
2023-02-03T10:36:34.628Z,98273.91
2023-02-03T10:37:40.400Z,98271.31
2023-02-03T10:38:50.861Z,98266.19
2023-02-03T10:39:54.083Z,98261.84
2023-02-03T10:40:56.906Z,98253.22
2023-02-03T10:41:59.008Z,98251.41
2023-02-03T10:43:19.690Z,98239.25
2023-02-03T10:44:27.009Z,98230.53
2023-02-03T10:45:29.154Z,98240.09
2023-02-03T10:46:33.737Z,98223.81
2023-02-03T10:47:37.021Z,98233.28
2023-02-03T10:48:39.745Z,98234.28
2023-02-03T10:49:43.547Z,98235.38
2023-02-03T10:50:49.704Z,98225.34
2023-02-03T10:51:55.731Z,98216.81
2023-02-03T10:53:22.171Z,98217.69
2023-02-03T10:54:31.927Z,98214.22
2023-02-03T10:55:34.023Z,98212.63
2023-02-03T10:56:38.963Z,98205.16
2023-02-03T10:57:41.816Z,98211.34
2023-02-03T10:58:49.642Z,98213.16
2023-02-03T10:59:52.482Z,98201.38
2023-02-03T11:00:58.214Z,98195.47
2023-02-03T11:02:01.836Z,98186.22
2023-02-03T11:03:07.617Z,98191.34
2023-02-03T11:04:25.104Z,98184.53
2023-02-03T11:05:29.117Z,98175.16
2023-02-03T11:06:32.511Z,98171.75
2023-02-03T11:07:35.602Z,98166.59
2023-02-03T11:08:40.257Z,98163.88
2023-02-03T11:09:43.749Z,98155.97
2023-02-03T11:10:45.574Z,98158.38
2023-02-03T11:11:48.408Z,98159.03
2023-02-03T11:12:50.163Z,98151.97
2023-02-03T11:13:57.253Z,98144.09
2023-02-03T11:15:07.261Z,98141.31
2023-02-03T11:16:15.447Z,98136.94
2023-02-03T11:17:19.592Z,98134.44
2023-02-03T11:18:45.114Z,98132.69
2023-02-03T11:19:48.775Z,98125.88
2023-02-03T11:20:50.571Z,98124.41
2023-02-03T11:21:55.975Z,98110.88
2023-02-03T11:22:59.727Z,98116.88
2023-02-03T11:24:06.199Z,98110.22
2023-02-03T11:25:18.539Z,98098.47
2023-02-03T11:26:22.086Z,98103.69
2023-02-03T11:27:25.404Z,98102.88
2023-02-03T11:28:28.374Z,98100.38
2023-02-03T11:29:34.348Z,98096.06
2023-02-03T11:30:38.003Z,98095.25
2023-02-03T11:31:41.254Z,98091.75
2023-02-03T11:32:44.025Z,98083.38
2023-02-03T11:33:52.048Z,98087.78
2023-02-03T11:34:57.974Z,98074.19
2023-02-03T11:36:00.153Z,98073.44
2023-02-03T11:37:25.983Z,98066.63
2023-02-03T11:38:32.590Z,98065.06
2023-02-03T11:39:35.820Z,98060.75
2023-02-03T11:40:38.608Z,98054.88
2023-02-03T11:41:41.729Z,98057.34
2023-02-03T11:42:46.178Z,98045.91
2023-02-03T11:43:49.227Z,98042.13
2023-02-03T11:44:52.249Z,98045.19
2023-02-03T11:45:54.859Z,98039.84
2023-02-03T11:46:59.668Z,98033.03
2023-02-03T11:48:14.103Z,98031.28
2023-02-03T11:49:34.402Z,98019.19
2023-02-03T11:50:39.597Z,98018.34
2023-02-03T11:51:44.987Z,98012.28
2023-02-03T11:52:57.397Z,98008.06
2023-02-03T11:54:13.348Z,98010.81
2023-02-03T11:55:32.620Z,98003.09
2023-02-03T11:56:59.537Z,97997.94
2023-02-03T11:58:14.071Z,97993.53
2023-02-03T11:59:28.565Z,97993.44
2023-02-03T12:00:36.974Z,97985.81
2023-02-03T12:01:56.078Z,97990.94
2023-02-03T12:03:24.299Z,97986.66
2023-02-03T12:04:52.221Z,97970.72
2023-02-03T12:06:03.547Z,97983.03
2023-02-03T12:07:30.672Z,97966.16
2023-02-03T12:08:43.758Z,97964.47
2023-02-03T12:09:55.718Z,97967.81
2023-02-03T12:11:12.760Z,97959.16
2023-02-03T12:12:27.547Z,97948.78
2023-02-03T12:13:59.269Z,97945.22
2023-02-03T12:15:14.207Z,97940.88
2023-02-03T12:16:25.911Z,97943.19
2023-02-03T12:17:40.548Z,97935.53
2023-02-03T12:19:10.229Z,97930.41
2023-02-03T12:20:29.398Z,97929.56
2023-02-03T12:21:39.985Z,97926.28
2023-02-03T12:22:48.582Z,97923.59
2023-02-03T12:23:57.099Z,97920.22
2023-02-03T12:25:09.361Z,97917.53
2023-02-03T12:26:19.488Z,97913.97
2023-02-03T12:27:30.056Z,97908.72
2023-02-03T12:28:45.053Z,97901.00
2023-02-03T12:29:51.574Z,97900.19
2023-02-03T12:30:57.349Z,97898.31
2023-02-03T12:32:06.668Z,97905.16
2023-02-03T12:33:14.971Z,97904.94
2023-02-03T12:34:20.524Z,97893.00
2023-02-03T12:35:26.735Z,97887.75
2023-02-03T12:36:31.046Z,97877.56
2023-02-03T12:37:41.802Z,97879.22
2023-02-03T12:38:45.835Z,97871.50
2023-02-03T12:39:51.541Z,97869.75
2023-02-03T12:40:58.054Z,97868.09
2023-02-03T12:42:23.172Z,97862.13
2023-02-03T12:43:31.581Z,97863.06
2023-02-03T12:44:40.481Z,97852.00
2023-02-03T12:45:43.736Z,97863.22
2023-02-03T12:46:48.977Z,97847.78
2023-02-03T12:47:55.335Z,97846.03
2023-02-03T12:49:01.649Z,97843.56
2023-02-03T12:50:07.547Z,97847.91
2023-02-03T12:51:15.283Z,97847.06
2023-02-03T12:52:21.519Z,97844.59
2023-02-03T12:53:29.374Z,97831.81